EPKT/KTW METAR and TAF weather

Enter ICAO airport designator
Station Type Date Time Source
EPKT METAR 2020/02/21 14:00 UTC NOAA

EPKT 211400Z 28013KT 9999 FEW028 SCT045 05/00 Q1020


Station Type Date Time Source
EPKT Decoded METAR 2020/02/21 14:00 UTC NOAA

Katowice, Poland (EPKT) 50-14N 019-02E 284M
Feb 21, 2020 - 09:00 AM EST / 2020.02.21 1400 UTC
Wind: from the W (280 degrees) at 15 MPH (13 KT):0
Visibility: greater than 7 mile(s):0
Sky conditions: partly cloudy
Temperature: 41 F (5 C)
Dew Point: 32 F (0 C)
Relative Humidity: 70%
Pressure (altimeter): 30.12 in. Hg (1020 hPa)
ob: EPKT 211400Z 28013KT 9999 FEW028 SCT045 05/00 Q1020
cycle: 14

Station Type Date Time Source
EPKT TAF 2020/02/21 12:33 UTC NOAA

TAF EPKT 211130Z 2112/2212 30014KT 9999 BKN020
TEMPO 2112/2116 32020G30KT 4000 SHRA BKN008 BKN012CB PROB30
TEMPO 2112/2115 BKN004 BKN010
BECMG 2119/2122 24006KT
BECMG 2205/2208 22016KT
TEMPO 2208/2212 22018G35KT

Example: see airport list